Time;durP1;ratioP1;P1;durP2;ratioP2;P2;SDS_P1;SDS_P2;PMS_P1;PMS_P2;Temp;Humidity;BMP_temperature;BMP_pressure;BME280_temperature;BME280_humidity;BME280_pressure;Samples;Min_cycle;Max_cycle;Signal;HPM_P1;HPM_P2
2022/10/29 00:01:34;;;;;;;;;;;;;;;;;;6260355;22;19950;-87
2022/10/29 00:04:00;;;;;;;;;;;;;;;;;;6260648;22;19930;-87
2022/10/29 00:06:27;;;;;;;;;;;;;;;;;;6254827;22;20472;-87
2022/10/29 00:08:53;;;;;;;;;;;;;;;;;;6286137;22;19919;-87
2022/10/29 00:11:19;;;;;;;;;;;;;;;;;;6257724;22;19932;-86
2022/10/29 00:13:47;;;;;;;;;;;;;;;;;;6259393;22;20343;-87
2022/10/29 00:16:13;;;;;;;;;;;;;;;;;;6257606;22;20294;-87
2022/10/29 00:18:39;;;;;;;;;;;;;;;;;;6258652;22;19915;-88
2022/10/29 00:21:05;;;;;;;;;;;;;;;;;;6255663;22;19914;-87
2022/10/29 00:23:31;;;;;;;;;;;;;;;;;;6283594;22;19918;-87
2022/10/29 00:25:57;;;;;;;;;;;;;;;;;;6285264;22;20103;-87
2022/10/29 00:28:23;;;;;;;;;;;;;;;;;;6284226;22;20251;-87
2022/10/29 00:30:49;;;;;;;;;;;;;;;;;;6261155;22;19922;-88
2022/10/29 00:33:17;;;;;;;;;;;;;;;;;;6257515;22;19915;-85
2022/10/29 00:35:43;;;;;;;;;;;;;;;;;;6289330;22;19919;-87
2022/10/29 00:38:09;;;;;;;;;;;;;;;;;;6256628;22;19944;-87
2022/10/29 00:40:35;;;;;;;;;;;;;;;;;;6284750;22;19919;-87
2022/10/29 00:43:01;;;;;;;;;;;;;;;;;;6258556;22;20400;-86
2022/10/29 00:45:27;;;;;;;;;;;;;;;;;;6283513;22;19995;-86
2022/10/29 00:47:53;;;;;;;;;;;;;;;;;;6283864;22;19922;-87
2022/10/29 00:50:19;;;;;;;;;;;;;;;;;;6282985;22;20264;-87
2022/10/29 00:52:45;;;;;;;;;;;;;;;;;;6285246;22;19918;-88
2022/10/29 00:55:11;;;;;;;;;;;;;;;;;;6257326;22;19922;-87
2022/10/29 00:57:37;;;;;;;;;;;;;;;;;;6283238;22;19923;-87
2022/10/29 01:00:06;;;;;;;;;;;;;;;;;;6259525;22;20044;-87
2022/10/29 01:02:32;;;;;;;;;;;;;;;;;;6260811;22;19991;-87
2022/10/29 01:04:58;;;;;;;;;;;;;;;;;;6258634;22;20450;-87
2022/10/29 01:07:24;;;;;;;;;;;;;;;;;;6282461;22;20012;-88
2022/10/29 01:09:50;;;;;;;;;;;;;;;;;;6286629;22;19954;-87
2022/10/29 01:12:16;;;;;;;;;;;;;;;;;;6283896;22;20331;-87
2022/10/29 01:14:42;;;;;;;;;;;;;;;;;;6258196;22;19919;-87
2022/10/29 01:17:08;;;;;;;;;;;;;;;;;;6257905;22;19919;-88
2022/10/29 01:19:34;;;;;;;;;;;;;;;;;;6287453;22;20348;-87
2022/10/29 01:22:00;;;;;;;;;;;;;;;;;;6286779;22;19927;-87
2022/10/29 01:24:26;;;;;;;;;;;;;;;;;;6254423;22;20026;-87
2022/10/29 01:26:52;;;;;;;;;;;;;;;;;;6258912;22;19946;-87
2022/10/29 01:29:18;;;;;;;;;;;;;;;;;;6282775;22;19919;-87
2022/10/29 01:31:44;;;;;;;;;;;;;;;;;;6283679;22;19914;-87
2022/10/29 01:34:11;;;;;;;;;;;;;;;;;;6261944;22;20272;-87
2022/10/29 01:36:37;;;;;;;;;;;;;;;;;;6286953;22;19985;-87
2022/10/29 01:39:06;;;;;;;;;;;;;;;;;;6260114;22;19918;-87
2022/10/29 01:41:32;;;;;;;;;;;;;;;;;;6283628;22;19919;-87
2022/10/29 01:43:59;;;;;;;;;;;;;;;;;;6259584;22;19915;-87
2022/10/29 01:46:25;;;;;;;;;;;;;;;;;;6281887;22;19954;-87
2022/10/29 01:48:51;;;;;;;;;;;;;;;;;;6260963;22;19919;-88
2022/10/29 01:51:17;;;;;;;;;;;;;;;;;;6278685;22;19981;-88
2022/10/29 01:53:43;;;;;;;;;;;;;;;;;;6283378;22;19922;-88
2022/10/29 01:56:09;;;;;;;;;;;;;;;;;;6257579;22;19972;-86
2022/10/29 01:58:36;;;;;;;;;;;;;;;;;;6262168;22;20696;-87
2022/10/29 02:01:05;;;;;;;;;;;;;;;;;;6285308;22;19919;-86
2022/10/29 02:03:31;;;;;;;;;;;;;;;;;;6258649;22;19927;-87
2022/10/29 02:05:57;;;;;;;;;;;;;;;;;;6260892;22;19919;-87
2022/10/29 02:08:23;;;;;;;;;;;;;;;;;;6257798;22;20384;-87
2022/10/29 02:10:49;;;;;;;;;;;;;;;;;;6283702;22;19919;-87
2022/10/29 02:13:15;;;;;;;;;;;;;;;;;;6280880;22;19946;-86
2022/10/29 02:15:41;;;;;;;;;;;;;;;;;;6285854;22;19919;-86
2022/10/29 02:18:07;;;;;;;;;;;;;;;;;;6256584;22;20017;-86
2022/10/29 02:20:33;;;;;;;;;;;;;;;;;;6280677;22;20306;-86
2022/10/29 02:22:59;;;;;;;;;;;;;;;;;;6256362;22;19926;-87
2022/10/29 02:25:25;;;;;;;;;;;;;;;;;;6257887;22;19941;-86
2022/10/29 02:27:51;;;;;;;;;;;;;;;;;;6256771;22;19927;-86
2022/10/29 02:30:17;;;;;;;;;;;;;;;;;;6280046;22;19930;-86
2022/10/29 02:32:43;;;;;;;;;;;;;;;;;;6258522;22;19968;-86
2022/10/29 02:35:09;;;;;;;;;;;;;;;;;;6282258;22;19957;-87
2022/10/29 02:37:35;;;;;;;;;;;;;;;;;;6286604;22;19947;-86
2022/10/29 02:40:01;;;;;;;;;;;;;;;;;;6260798;22;19915;-86
2022/10/29 02:42:26;;;;;;;;;;;;;;;;;;6256957;22;19934;-86
2022/10/29 02:44:53;;;;;;;;;;;;;;;;;;6283855;22;20029;-87
2022/10/29 02:47:18;;;;;;;;;;;;;;;;;;6257740;22;19923;-86
2022/10/29 02:49:44;;;;;;;;;;;;;;;;;;6286430;22;20111;-86
2022/10/29 02:52:10;;;;;;;;;;;;;;;;;;6252935;22;19915;-86
2022/10/29 02:54:38;;;;;;;;;;;;;;;;;;6258278;22;19923;-86
2022/10/29 02:57:03;;;;;;;;;;;;;;;;;;6257831;22;19926;-86
2022/10/29 02:59:30;;;;;;;;;;;;;;;;;;6260945;22;19919;-86
2022/10/29 03:01:55;;;;;;;;;;;;;;;;;;6256272;22;19919;-86
2022/10/29 03:04:21;;;;;;;;;;;;;;;;;;6255641;22;19990;-86
2022/10/29 03:06:47;;;;;;;;;;;;;;;;;;6260283;22;19930;-86
2022/10/29 03:09:13;;;;;;;;;;;;;;;;;;6281392;22;19925;-86
2022/10/29 03:11:39;;;;;;;;;;;;;;;;;;6284156;22;19918;-86
2022/10/29 03:14:05;;;;;;;;;;;;;;;;;;6284085;22;20385;-87
2022/10/29 03:16:31;;;;;;;;;;;;;;;;;;6283104;22;19914;-87
2022/10/29 03:18:57;;;;;;;;;;;;;;;;;;6283583;22;19926;-86
2022/10/29 03:21:23;;;;;;;;;;;;;;;;;;6256909;22;20371;-86
2022/10/29 03:23:49;;;;;;;;;;;;;;;;;;6284324;22;19925;-86
2022/10/29 03:26:15;;;;;;;;;;;;;;;;;;6282007;22;20685;-87
2022/10/29 03:28:41;;;;;;;;;;;;;;;;;;6258556;22;19923;-87
2022/10/29 03:31:07;;;;;;;;;;;;;;;;;;6280792;22;19919;-87
2022/10/29 03:33:33;;;;;;;;;;;;;;;;;;6256305;22;19968;-87
2022/10/29 03:35:59;;;;;;;;;;;;;;;;;;6260781;22;19919;-87
2022/10/29 03:38:25;;;;;;;;;;;;;;;;;;6282886;22;20343;-87
2022/10/29 03:40:51;;;;;;;;;;;;;;;;;;6258931;22;19974;-87
2022/10/29 03:43:17;;;;;;;;;;;;;;;;;;6282670;22;20407;-87
2022/10/29 03:45:43;;;;;;;;;;;;;;;;;;6289413;22;20016;-87
2022/10/29 03:48:09;;;;;;;;;;;;;;;;;;6282802;22;19923;-86
2022/10/29 03:50:35;;;;;;;;;;;;;;;;;;6286408;22;19954;-87
2022/10/29 03:53:01;;;;;;;;;;;;;;;;;;6259734;22;19990;-86
2022/10/29 03:55:30;;;;;;;;;;;;;;;;;;6287732;22;19923;-86
2022/10/29 03:57:56;;;;;;;;;;;;;;;;;;6287386;22;19919;-86
2022/10/29 04:00:22;;;;;;;;;;;;;;;;;;6257755;22;20359;-87
2022/10/29 04:02:48;;;;;;;;;;;;;;;;;;6261343;22;20367;-87
2022/10/29 04:05:14;;;;;;;;;;;;;;;;;;6287107;22;20220;-87
2022/10/29 04:07:39;;;;;;;;;;;;;;;;;;6263641;22;19929;-86
2022/10/29 04:10:05;;;;;;;;;;;;;;;;;;6284251;22;19919;-87
2022/10/29 04:12:31;;;;;;;;;;;;;;;;;;6262132;22;19919;-87
2022/10/29 04:14:57;;;;;;;;;;;;;;;;;;6287850;22;19950;-87
2022/10/29 04:17:23;;;;;;;;;;;;;;;;;;6286052;22;20354;-87
2022/10/29 04:19:49;;;;;;;;;;;;;;;;;;6286484;22;19919;-87
2022/10/29 04:22:15;;;;;;;;;;;;;;;;;;6286062;22;19947;-87
2022/10/29 04:24:41;;;;;;;;;;;;;;;;;;6261428;22;19958;-87
2022/10/29 04:27:07;;;;;;;;;;;;;;;;;;6283820;22;19923;-87
2022/10/29 04:29:33;;;;;;;;;;;;;;;;;;6289037;22;19919;-87
2022/10/29 04:31:59;;;;;;;;;;;;;;;;;;6289148;22;19918;-87
2022/10/29 04:34:25;;;;;;;;;;;;;;;;;;6283021;22;19958;-87
2022/10/29 04:36:52;;;;;;;;;;;;;;;;;;6286763;22;19919;-87
2022/10/29 04:39:18;;;;;;;;;;;;;;;;;;6283162;22;19989;-86
2022/10/29 04:41:44;;;;;;;;;;;;;;;;;;6259738;22;20037;-87
2022/10/29 04:44:10;;;;;;;;;;;;;;;;;;6262042;22;20288;-85
2022/10/29 04:46:36;;;;;;;;;;;;;;;;;;6262478;22;19919;-86
2022/10/29 04:49:02;;;;;;;;;;;;;;;;;;6261352;22;19926;-86
2022/10/29 04:51:28;;;;;;;;;;;;;;;;;;6283954;22;19914;-86
2022/10/29 04:53:54;;;;;;;;;;;;;;;;;;6287374;22;19918;-87
2022/10/29 04:56:20;;;;;;;;;;;;;;;;;;6260274;22;19993;-86
2022/10/29 04:58:46;;;;;;;;;;;;;;;;;;6261345;22;19946;-86
2022/10/29 05:01:12;;;;;;;;;;;;;;;;;;6257659;22;19919;-86
2022/10/29 05:03:38;;;;;;;;;;;;;;;;;;6286344;22;19973;-86
2022/10/29 05:06:04;;;;;;;;;;;;;;;;;;6287222;22;19961;-87
2022/10/29 05:08:30;;;;;;;;;;;;;;;;;;6260627;22;20390;-86
2022/10/29 05:10:56;;;;;;;;;;;;;;;;;;6262943;22;19997;-86
2022/10/29 05:13:22;;;;;;;;;;;;;;;;;;6282748;22;20723;-87
2022/10/29 05:15:48;;;;;;;;;;;;;;;;;;6261938;22;19919;-87
2022/10/29 05:18:14;;;;;;;;;;;;;;;;;;6259557;22;19915;-87
2022/10/29 05:20:39;;;;;;;;;;;;;;;;;;6262027;22;19942;-87
2022/10/29 05:23:06;;;;;;;;;;;;;;;;;;6254593;22;19922;-87
2022/10/29 05:25:34;;;;;;;;;;;;;;;;;;6282228;22;20163;-87
2022/10/29 05:28:00;;;;;;;;;;;;;;;;;;6261172;22;19930;-88
2022/10/29 05:30:26;;;;;;;;;;;;;;;;;;6259985;22;20080;-87
2022/10/29 05:32:52;;;;;;;;;;;;;;;;;;6287435;22;19919;-87
2022/10/29 05:35:19;;;;;;;;;;;;;;;;;;6283850;22;19997;-87
2022/10/29 05:37:45;;;;;;;;;;;;;;;;;;6287324;22;20243;-87
2022/10/29 05:40:11;;;;;;;;;;;;;;;;;;6257823;22;20323;-88
2022/10/29 05:42:38;;;;;;;;;;;;;;;;;;6291956;22;20644;-88
2022/10/29 05:45:04;;;;;;;;;;;;;;;;;;6261147;22;19992;-87
2022/10/29 05:47:30;;;;;;;;;;;;;;;;;;6289173;22;20502;-87
2022/10/29 05:49:56;;;;;;;;;;;;;;;;;;6264480;22;19915;-87
2022/10/29 05:52:22;;;;;;;;;;;;;;;;;;6285003;22;19969;-87
2022/10/29 05:54:49;;;;;;;;;;;;;;;;;;6261404;22;20828;-88
2022/10/29 05:57:15;;;;;;;;;;;;;;;;;;6286256;22;19984;-87
2022/10/29 05:59:41;;;;;;;;;;;;;;;;;;6286483;22;19919;-87
2022/10/29 06:02:07;;;;;;;;;;;;;;;;;;6283882;22;19926;-88
2022/10/29 06:04:34;;;;;;;;;;;;;;;;;;6288913;22;19954;-87
2022/10/29 06:07:00;;;;;;;;;;;;;;;;;;6286060;22;19922;-88
2022/10/29 06:09:26;;;;;;;;;;;;;;;;;;6261491;22;19923;-88
2022/10/29 06:11:53;;;;;;;;;;;;;;;;;;6260903;22;19922;-87
2022/10/29 06:14:19;;;;;;;;;;;;;;;;;;6260698;22;19968;-86
2022/10/29 06:16:46;;;;;;;;;;;;;;;;;;6288872;22;19919;-86
2022/10/29 06:19:12;;;;;;;;;;;;;;;;;;6257432;22;19922;-86
2022/10/29 06:21:38;;;;;;;;;;;;;;;;;;6289290;22;19975;-86
2022/10/29 06:24:05;;;;;;;;;;;;;;;;;;6285333;22;20363;-86
2022/10/29 06:26:31;;;;;;;;;;;;;;;;;;6287743;22;20273;-86
2022/10/29 06:28:58;;;;;;;;;;;;;;;;;;6285962;22;19918;-86
2022/10/29 06:31:24;;;;;;;;;;;;;;;;;;6288896;22;20089;-86
2022/10/29 06:33:51;;;;;;;;;;;;;;;;;;6289343;22;19950;-86
2022/10/29 06:36:17;;;;;;;;;;;;;;;;;;6282682;22;20395;-86
2022/10/29 06:38:43;;;;;;;;;;;;;;;;;;6261572;22;20664;-86
2022/10/29 06:41:10;;;;;;;;;;;;;;;;;;6256789;22;19919;-86
2022/10/29 06:43:36;;;;;;;;;;;;;;;;;;6286210;22;20449;-86
2022/10/29 06:46:02;;;;;;;;;;;;;;;;;;6261139;22;19918;-86
2022/10/29 06:48:46;;;;;;;;;;;;;;;;;;6260688;22;19923;-86
2022/10/29 06:51:14;;;;;;;;;;;;;;;;;;6285108;22;20284;-86
2022/10/29 06:53:44;;;;;;;;;;;;;;;;;;6260500;22;20309;-86
2022/10/29 06:56:11;;;;;;;;;;;;;;;;;;6256137;22;19919;-86
2022/10/29 06:58:43;;;;;;;;;;;;;;;;;;6260053;22;19927;-86
2022/10/29 07:01:09;;;;;;;;;;;;;;;;;;6256366;22;19973;-86
2022/10/29 07:03:36;;;;;;;;;;;;;;;;;;6264203;22;20027;-86
2022/10/29 07:06:06;;;;;;;;;;;;;;;;;;6261588;22;20393;-87
2022/10/29 07:08:32;;;;;;;;;;;;;;;;;;6262916;22;19923;-86
2022/10/29 07:11:01;;;;;;;;;;;;;;;;;;6289562;22;19926;-86
2022/10/29 07:13:33;;;;;;;;;;;;;;;;;;6290162;22;19927;-86
2022/10/29 07:16:00;;;;;;;;;;;;;;;;;;6288836;22;20015;-86
2022/10/29 07:18:26;;;;;;;;;;;;;;;;;;6260685;22;20235;-86
2022/10/29 07:20:52;;;;;;;;;;;;;;;;;;6259919;22;19915;-87
2022/10/29 07:23:21;;;;;;;;;;;;;;;;;;6252268;22;19925;-86
2022/10/29 07:25:47;;;;;;;;;;;;;;;;;;6264779;22;19923;-87
2022/10/29 07:28:13;;;;;;;;;;;;;;;;;;6285546;22;19922;-87
2022/10/29 07:30:39;;;;;;;;;;;;;;;;;;6288066;22;19993;-86
2022/10/29 07:33:05;;;;;;;;;;;;;;;;;;6260972;22;20375;-86
2022/10/29 07:35:34;;;;;;;;;;;;;;;;;;6262576;22;20317;-87
2022/10/29 07:38:00;;;;;;;;;;;;;;;;;;6265675;22;20331;-87
2022/10/29 07:40:26;;;;;;;;;;;;;;;;;;6262890;22;20068;-86
2022/10/29 07:42:52;;;;;;;;;;;;;;;;;;6294037;22;19946;-87
2022/10/29 07:45:18;;;;;;;;;;;;;;;;;;6266016;22;20369;-87
2022/10/29 07:47:44;;;;;;;;;;;;;;;;;;6266909;22;19922;-87
2022/10/29 07:50:10;;;;;;;;;;;;;;;;;;6262954;22;20051;-87
2022/10/29 07:52:36;;;;;;;;;;;;;;;;;;6265530;22;19941;-87
2022/10/29 07:55:02;;;;;;;;;;;;;;;;;;6261163;22;20277;-87
2022/10/29 07:57:28;;;;;;;;;;;;;;;;;;6259148;22;19918;-87
2022/10/29 07:59:54;;;;;;;;;;;;;;;;;;6266893;22;19919;-87
2022/10/29 08:02:20;;;;;;;;;;;;;;;;;;6260242;22;20001;-88
2022/10/29 08:04:46;;;;;;;;;;;;;;;;;;6262659;22;20344;-87
2022/10/29 08:07:12;;;;;;;;;;;;;;;;;;6261700;22;19930;-87
2022/10/29 08:09:39;;;;;;;;;;;;;;;;;;6288857;22;20255;-87
2022/10/29 08:12:05;;;;;;;;;;;;;;;;;;6287035;22;19915;-88
2022/10/29 08:14:31;;;;;;;;;;;;;;;;;;6264694;22;19918;-87
2022/10/29 08:16:57;;;;;;;;;;;;;;;;;;6265534;22;20427;-87
2022/10/29 08:19:23;;;;;;;;;;;;;;;;;;6266833;22;20502;-87
2022/10/29 08:21:52;;;;;;;;;;;;;;;;;;6264965;22;19919;-87
2022/10/29 08:24:18;;;;;;;;;;;;;;;;;;6288193;22;19925;-87
2022/10/29 08:26:44;;;;;;;;;;;;;;;;;;6289197;22;20286;-88
2022/10/29 08:29:10;;;;;;;;;;;;;;;;;;6260760;22;19918;-88
2022/10/29 08:31:36;;;;;;;;;;;;;;;;;;6264630;22;19997;-88
2022/10/29 08:34:02;;;;;;;;;;;;;;;;;;6288905;22;19915;-87
2022/10/29 08:36:28;;;;;;;;;;;;;;;;;;6259396;22;20471;-87
2022/10/29 08:38:54;;;;;;;;;;;;;;;;;;6261192;22;19926;-87
2022/10/29 08:41:20;;;;;;;;;;;;;;;;;;6259477;22;19919;-88
2022/10/29 08:43:46;;;;;;;;;;;;;;;;;;6284886;22;19925;-87
2022/10/29 08:46:12;;;;;;;;;;;;;;;;;;6285939;22;19926;-87
2022/10/29 08:48:38;;;;;;;;;;;;;;;;;;6262688;22;19927;-87
2022/10/29 08:51:04;;;;;;;;;;;;;;;;;;6264190;22;19982;-87
2022/10/29 08:53:30;;;;;;;;;;;;;;;;;;6265351;22;19915;-87
2022/10/29 08:55:56;;;;;;;;;;;;;;;;;;6267375;22;19923;-87
2022/10/29 08:58:23;;;;;;;;;;;;;;;;;;6291155;22;19918;-88
2022/10/29 09:00:49;;;;;;;;;;;;;;;;;;6291499;22;19915;-88
2022/10/29 09:03:15;;;;;;;;;;;;;;;;;;6257450;22;19930;-88
2022/10/29 09:05:41;;;;;;;;;;;;;;;;;;6260611;22;20233;-87
2022/10/29 09:08:06;;;;;;;;;;;;;;;;;;6258182;22;19970;-88
2022/10/29 09:10:33;;;;;;;;;;;;;;;;;;6262116;22;19918;-87
2022/10/29 09:13:01;;;;;;;;;;;;;;;;;;6284114;22;20359;-91
2022/10/29 09:15:27;;;;;;;;;;;;;;;;;;6284068;22;19985;-88
2022/10/29 09:17:53;;;;;;;;;;;;;;;;;;6263644;22;20013;-88
2022/10/29 09:20:19;;;;;;;;;;;;;;;;;;6262987;22;19964;-88
2022/10/29 09:22:46;;;;;;;;;;;;;;;;;;6291022;22;19925;-88
2022/10/29 09:25:12;;;;;;;;;;;;;;;;;;6286612;22;19919;-88
2022/10/29 09:27:38;;;;;;;;;;;;;;;;;;6290739;22;19929;-88
2022/10/29 09:30:04;;;;;;;;;;;;;;;;;;6290953;22;20251;-88
2022/10/29 09:32:30;;;;;;;;;;;;;;;;;;6291655;22;19919;-88
2022/10/29 09:34:56;;;;;;;;;;;;;;;;;;6265618;22;20343;-87
2022/10/29 09:37:22;;;;;;;;;;;;;;;;;;6288401;22;20001;-88
2022/10/29 09:39:48;;;;;;;;;;;;;;;;;;6265688;22;19915;-88
2022/10/29 09:42:14;;;;;;;;;;;;;;;;;;6288822;22;19930;-88
2022/10/29 09:44:40;;;;;;;;;;;;;;;;;;6264833;22;19919;-88
2022/10/29 09:47:06;;;;;;;;;;;;;;;;;;6289326;22;19923;-88
2022/10/29 09:49:32;;;;;;;;;;;;;;;;;;6265635;22;20346;-87
2022/10/29 09:51:58;;;;;;;;;;;;;;;;;;6291343;22;19919;-87
2022/10/29 09:54:24;;;;;;;;;;;;;;;;;;6264750;22;20409;-88
2022/10/29 09:56:50;;;;;;;;;;;;;;;;;;6265818;22;19953;-88
2022/10/29 09:59:16;;;;;;;;;;;;;;;;;;6264148;22;20339;-88
2022/10/29 10:01:42;;;;;;;;;;;;;;;;;;6263491;22;19918;-88
2022/10/29 10:04:08;;;;;;;;;;;;;;;;;;6261952;22;19927;-88
2022/10/29 10:06:34;;;;;;;;;;;;;;;;;;6291914;22;19965;-88
2022/10/29 10:09:00;;;;;;;;;;;;;;;;;;6265643;22;20316;-88
2022/10/29 10:14:34;;;;;;;;;;;;;;;;;;6302600;22;19919;-88
2022/10/29 10:17:19;;;;;;;;;;;;;;;;;;6290164;22;19919;-88
2022/10/29 10:19:45;;;;;;;;;;;;;;;;;;6267716;22;20336;-88
2022/10/29 10:22:24;;;;;;;;;;;;;;;;;;6288870;22;19950;-89
2022/10/29 10:25:08;;;;;;;;;;;;;;;;;;6288568;22;19926;-88
2022/10/29 10:46:31;;;;;;;;;;;;;;;;;;;;;
2022/10/29 10:49:02;;;;;;;;;;;;;;;;;;6054897;23;20342;-88
2022/10/29 11:18:27;;;;;;;;;;;;;;;;;;6058382;23;19916;-89
2022/10/29 11:21:01;;;;;;;;;;;;;;;;;;5993905;23;19922;-89
2022/10/29 11:26:21;;;;;;;;;;;;;;;;;;6070661;23;20021;-89
2022/10/29 11:29:05;;;;;;;;;;;;;;;;;;6083346;23;20013;-90
2022/10/29 11:31:41;;;;;;;;;;;;;;;;;;6094202;23;19926;-90
2022/10/29 11:34:29;;;;;;;;;;;;;;;;;;;;;
2022/10/29 11:37:13;;;;;;;;;;;;;;;;;;6194373;23;19930;-90
2022/10/29 11:40:05;;;;;;;;;;;;;;;;;;;;;
2022/10/29 11:42:41;;;;;;;;;;;;;;;;;;6171197;23;20269;-90
2022/10/29 11:45:30;;;;;;;;;;;;;;;;;;6167681;23;19920;-89
2022/10/29 11:48:08;;;;;;;;;;;;;;;;;;6169266;23;19930;-89
2022/10/29 11:56:09;;;;;;;;;;;;;;;;;;6317552;22;19918;-90
2022/10/29 11:58:35;;;;;;;;;;;;;;;;;;6322971;22;19918;-89
2022/10/29 12:04:08;;;;;;;;;;;;;;;;;;6332756;22;20361;-89
2022/10/29 12:07:05;;;;;;;;;;;;;;;;;;;;;
2022/10/29 12:09:44;;;;;;;;;;;;;;;;;;6323090;22;19923;-89
2022/10/29 12:12:39;;;;;;;;;;;;;;;;;;;;;
2022/10/29 12:15:08;;;;;;;;;;;;;;;;;;6289236;22;20417;-90
2022/10/29 12:17:41;;;;;;;;;;;;;;;;;;6295204;22;20025;-89
2022/10/29 12:23:13;;;;;;;;;;;;;;;;;;6328664;22;20243;-92
2022/10/29 12:25:42;;;;;;;;;;;;;;;;;;6293255;22;19998;-88
2022/10/29 12:28:08;;;;;;;;;;;;;;;;;;6286528;22;20368;-81
2022/10/29 12:30:36;;;;;;;;;;;;;;;;;;6296687;22;19985;-83
2022/10/29 12:33:02;;;;;;;;;;;;;;;;;;6297872;22;19929;-81
2022/10/29 12:35:28;;;;;;;;;;;;;;;;;;6289596;22;19919;-81
2022/10/29 12:37:54;;;;;;;;;;;;;;;;;;6319328;22;19925;-82
2022/10/29 12:40:20;;;;;;;;;;;;;;;;;;6295719;22;19944;-82
2022/10/29 12:42:46;;;;;;;;;;;;;;;;;;6295279;22;19918;-82
2022/10/29 12:45:12;;;;;;;;;;;;;;;;;;6292022;22;20021;-82
2022/10/29 12:47:38;;;;;;;;;;;;;;;;;;6291450;22;19994;-86
2022/10/29 12:50:04;;;;;;;;;;;;;;;;;;6284463;22;19919;-81
2022/10/29 12:55:47;;;;;;;;;;;;;;;;;;;;;
2022/10/29 12:58:44;;;;;;;;;;;;;;;;;;6330901;22;20001;-89
2022/10/29 13:01:20;;;;;;;;;;;;;;;;;;6315145;22;19918;-89
2022/10/29 13:03:49;;;;;;;;;;;;;;;;;;6295663;22;19949;-90
2022/10/29 13:06:18;;;;;;;;;;;;;;;;;;6294351;22;19915;-89
2022/10/29 13:11:59;;;;;;;;;;;;;;;;;;;;;
2022/10/29 13:48:41;;;;;;;;;;;;;;;;;;6302297;22;20247;-90
2022/10/29 14:03:13;;;;;;;;;;;;;;;;;;6236800;23;20382;-90
2022/10/29 14:06:00;;;;;;;;;;;;;;;;;;6203749;23;19923;-90
2022/10/29 14:08:45;;;;;;;;;;;;;;;;;;6224957;23;20131;-90
2022/10/29 14:17:08;;;;;;;;;;;;;;;;;;6203873;22;19919;-90
2022/10/29 14:22:48;;;;;;;;;;;;;;;;;;;;;
2022/10/29 14:28:08;;;;;;;;;;;;;;;;;;6221372;22;20297;-90
2022/10/29 14:30:39;;;;;;;;;;;;;;;;;;6214494;22;19923;-90
2022/10/29 14:36:38;;;;;;;;;;;;;;;;;;;;;
2022/10/29 15:17:00;;;;;;;;;;;;;;;;;;6312560;22;19927;-89
2022/10/29 16:22:36;;;;;;;;;;;;;;;;;;6292407;22;19930;-89
2022/10/29 16:25:02;;;;;;;;;;;;;;;;;;6297745;22;20001;-88
2022/10/29 16:30:40;;;;;;;;;;;;;;;;;;6310053;22;19937;-90
2022/10/29 16:33:14;;;;;;;;;;;;;;;;;;6296520;22;19923;-89
2022/10/29 16:35:54;;;;;;;;;;;;;;;;;;6298463;22;19939;-89
2022/10/29 16:38:20;;;;;;;;;;;;;;;;;;6297767;22;19918;-89
2022/10/29 16:43:51;;;;;;;;;;;;;;;;;;6234640;22;19919;-87
2022/10/29 16:46:17;;;;;;;;;;;;;;;;;;6232403;22;19919;-88
2022/10/29 16:48:44;;;;;;;;;;;;;;;;;;6306685;22;19923;-88
2022/10/29 16:51:16;;;;;;;;;;;;;;;;;;6320064;22;19918;-88
2022/10/29 16:53:42;;;;;;;;;;;;;;;;;;6298306;22;20398;-88
2022/10/29 16:56:08;;;;;;;;;;;;;;;;;;6296874;22;19975;-89
2022/10/29 16:58:34;;;;;;;;;;;;;;;;;;6299762;22;19919;-88
2022/10/29 17:01:00;;;;;;;;;;;;;;;;;;6296009;22;20064;-88
2022/10/29 17:03:26;;;;;;;;;;;;;;;;;;6295690;22;20409;-89
2022/10/29 17:05:52;;;;;;;;;;;;;;;;;;6299718;22;19918;-88
2022/10/29 17:08:19;;;;;;;;;;;;;;;;;;6294884;22;19999;-88
2022/10/29 17:10:45;;;;;;;;;;;;;;;;;;6299221;22;19975;-87
2022/10/29 17:13:11;;;;;;;;;;;;;;;;;;6296584;22;19922;-89
2022/10/29 17:15:37;;;;;;;;;;;;;;;;;;6298051;22;19914;-87
2022/10/29 17:18:03;;;;;;;;;;;;;;;;;;6298000;22;20384;-88
2022/10/29 17:20:29;;;;;;;;;;;;;;;;;;6295762;22;20331;-88
2022/10/29 17:22:55;;;;;;;;;;;;;;;;;;6298359;22;19969;-88
2022/10/29 17:25:21;;;;;;;;;;;;;;;;;;6296239;22;19918;-88
2022/10/29 17:27:47;;;;;;;;;;;;;;;;;;6296927;22;19929;-87
2022/10/29 17:30:13;;;;;;;;;;;;;;;;;;6297789;22;19918;-87
2022/10/29 17:32:39;;;;;;;;;;;;;;;;;;6296640;22;19918;-88
2022/10/29 17:35:05;;;;;;;;;;;;;;;;;;6297289;22;19966;-87
2022/10/29 17:37:31;;;;;;;;;;;;;;;;;;6298918;22;19975;-88
2022/10/29 17:39:57;;;;;;;;;;;;;;;;;;6297563;22;19918;-88
2022/10/29 17:42:22;;;;;;;;;;;;;;;;;;6295269;22;19964;-88
2022/10/29 17:44:48;;;;;;;;;;;;;;;;;;6298915;22;19926;-88
2022/10/29 17:47:14;;;;;;;;;;;;;;;;;;6295665;22;19919;-88
2022/10/29 17:49:40;;;;;;;;;;;;;;;;;;6298623;22;20355;-88
2022/10/29 17:52:06;;;;;;;;;;;;;;;;;;6295431;22;19915;-88
2022/10/29 17:54:32;;;;;;;;;;;;;;;;;;6297800;22;19922;-88
2022/10/29 17:56:58;;;;;;;;;;;;;;;;;;6298542;22;19950;-88
2022/10/29 17:59:24;;;;;;;;;;;;;;;;;;6296453;22;19985;-88
2022/10/29 18:01:50;;;;;;;;;;;;;;;;;;6297807;22;19918;-88
2022/10/29 18:04:16;;;;;;;;;;;;;;;;;;6321184;22;19918;-88
2022/10/29 18:06:42;;;;;;;;;;;;;;;;;;6297369;22;19957;-88
2022/10/29 18:09:08;;;;;;;;;;;;;;;;;;6291126;22;19923;-88
2022/10/29 18:11:34;;;;;;;;;;;;;;;;;;6297880;22;20610;-88
2022/10/29 18:14:00;;;;;;;;;;;;;;;;;;6298232;22;19926;-87
2022/10/29 18:16:27;;;;;;;;;;;;;;;;;;6293148;22;19918;-88
2022/10/29 18:18:53;;;;;;;;;;;;;;;;;;6296978;22;19964;-88
2022/10/29 18:21:37;;;;;;;;;;;;;;;;;;6323972;22;19949;-87
2022/10/29 18:24:06;;;;;;;;;;;;;;;;;;6298144;22;19929;-89
2022/10/29 18:26:37;;;;;;;;;;;;;;;;;;6299654;22;20014;-88
2022/10/29 18:29:09;;;;;;;;;;;;;;;;;;6296548;22;19926;-87
2022/10/29 18:31:50;;;;;;;;;;;;;;;;;;6298665;22;19918;-87
2022/10/29 18:34:16;;;;;;;;;;;;;;;;;;6296990;22;20414;-88
2022/10/29 18:36:42;;;;;;;;;;;;;;;;;;6298156;22;19918;-88
2022/10/29 18:39:11;;;;;;;;;;;;;;;;;;6295553;22;20514;-88
2022/10/29 18:41:46;;;;;;;;;;;;;;;;;;6297169;22;19918;-88
2022/10/29 18:44:21;;;;;;;;;;;;;;;;;;6296555;22;19915;-88
2022/10/29 18:46:58;;;;;;;;;;;;;;;;;;6297208;22;19918;-88
2022/10/29 18:49:32;;;;;;;;;;;;;;;;;;6295618;22;19922;-88
2022/10/29 18:52:01;;;;;;;;;;;;;;;;;;6296020;22;19953;-88
2022/10/29 18:54:33;;;;;;;;;;;;;;;;;;6296390;22;20366;-88
2022/10/29 18:57:04;;;;;;;;;;;;;;;;;;6297497;22;19919;-89
2022/10/29 18:59:36;;;;;;;;;;;;;;;;;;6294756;22;20342;-88
2022/10/29 19:04:48;;;;;;;;;;;;;;;;;;6297374;22;20331;-88
2022/10/29 19:07:17;;;;;;;;;;;;;;;;;;6294808;22;19925;-87
2022/10/29 19:09:46;;;;;;;;;;;;;;;;;;6299320;22;19973;-87
2022/10/29 19:12:15;;;;;;;;;;;;;;;;;;6294987;22;19922;-88
2022/10/29 19:14:55;;;;;;;;;;;;;;;;;;6295050;22;19963;-88
2022/10/29 19:17:21;;;;;;;;;;;;;;;;;;6297444;22;19922;-87
2022/10/29 19:19:47;;;;;;;;;;;;;;;;;;6297922;22;19999;-87
2022/10/29 19:22:13;;;;;;;;;;;;;;;;;;6318521;22;19923;-88
2022/10/29 19:24:42;;;;;;;;;;;;;;;;;;6316139;22;19919;-87
2022/10/29 19:27:14;;;;;;;;;;;;;;;;;;6299046;22;19919;-88
2022/10/29 19:29:50;;;;;;;;;;;;;;;;;;;;;
2022/10/29 19:32:21;;;;;;;;;;;;;;;;;;6292150;22;19918;-88
2022/10/29 19:34:48;;;;;;;;;;;;;;;;;;6296709;22;19919;-88
2022/10/29 19:37:14;;;;;;;;;;;;;;;;;;6297138;22;19918;-87
2022/10/29 19:39:42;;;;;;;;;;;;;;;;;;6299910;22;19914;-88
2022/10/29 19:42:14;;;;;;;;;;;;;;;;;;6296110;22;19918;-87
2022/10/29 19:44:40;;;;;;;;;;;;;;;;;;6323791;22;19953;-87
2022/10/29 19:47:12;;;;;;;;;;;;;;;;;;6297596;22;19918;-88
2022/10/29 19:49:38;;;;;;;;;;;;;;;;;;6300535;22;19975;-87
2022/10/29 19:52:04;;;;;;;;;;;;;;;;;;6298211;22;20659;-87
2022/10/29 19:54:30;;;;;;;;;;;;;;;;;;6296940;22;20058;-88
2022/10/29 19:56:56;;;;;;;;;;;;;;;;;;6297433;22;19973;-88
2022/10/29 19:59:22;;;;;;;;;;;;;;;;;;6294428;22;19919;-87
2022/10/29 20:01:48;;;;;;;;;;;;;;;;;;6296843;22;19964;-87
2022/10/29 20:04:14;;;;;;;;;;;;;;;;;;6296391;22;19918;-88
2022/10/29 20:06:40;;;;;;;;;;;;;;;;;;6297151;22;19940;-88
2022/10/29 20:09:06;;;;;;;;;;;;;;;;;;6295662;22;19922;-89
2022/10/29 20:11:32;;;;;;;;;;;;;;;;;;6299564;22;19914;-87
2022/10/29 20:13:58;;;;;;;;;;;;;;;;;;6298176;22;19940;-88
2022/10/29 20:16:24;;;;;;;;;;;;;;;;;;6294560;22;20402;-88
2022/10/29 20:18:50;;;;;;;;;;;;;;;;;;6295933;22;19926;-88
2022/10/29 20:21:16;;;;;;;;;;;;;;;;;;6292720;22;19953;-88
2022/10/29 20:23:43;;;;;;;;;;;;;;;;;;6297737;22;19922;-88
2022/10/29 20:26:09;;;;;;;;;;;;;;;;;;6295263;22;19918;-88
2022/10/29 20:28:35;;;;;;;;;;;;;;;;;;6296302;22;19933;-88
2022/10/29 20:31:01;;;;;;;;;;;;;;;;;;6294858;22;19968;-88
2022/10/29 20:33:27;;;;;;;;;;;;;;;;;;6293522;22;19918;-88
2022/10/29 20:35:53;;;;;;;;;;;;;;;;;;6321444;22;19981;-89
2022/10/29 20:38:19;;;;;;;;;;;;;;;;;;6296033;22;19957;-89
2022/10/29 20:40:45;;;;;;;;;;;;;;;;;;6302740;22;20498;-88
2022/10/29 20:43:11;;;;;;;;;;;;;;;;;;6305871;22;19925;-88
2022/10/29 20:45:37;;;;;;;;;;;;;;;;;;6313399;22;19914;-89
2022/10/29 20:48:03;;;;;;;;;;;;;;;;;;6309199;22;19926;-90
2022/10/29 20:50:29;;;;;;;;;;;;;;;;;;6310491;22;19958;-89
2022/10/29 20:52:55;;;;;;;;;;;;;;;;;;6307449;22;19919;-89
2022/10/29 20:55:21;;;;;;;;;;;;;;;;;;6307779;22;19918;-88
2022/10/29 20:57:47;;;;;;;;;;;;;;;;;;6308611;22;19915;-89